createdAt,value
2019-03-11T00:00:12.165Z,6.33
2019-03-11T00:05:16.035Z,6.07
2019-03-11T00:10:18.228Z,5.50
2019-03-11T00:15:20.440Z,4.90
2019-03-11T00:20:22.590Z,5.40
2019-03-11T00:25:24.988Z,5.40
2019-03-11T00:30:27.201Z,5.47
2019-03-11T00:35:29.477Z,5.27
2019-03-11T00:40:32.425Z,5.67
2019-03-11T00:45:34.981Z,5.70
2019-03-11T00:50:37.756Z,6.00
2019-03-11T00:55:41.416Z,6.00
2019-03-11T01:00:43.770Z,6.93
2019-03-11T01:05:46.580Z,6.90
2019-03-11T01:10:48.516Z,6.67
2019-03-11T01:15:50.880Z,7.20
2019-03-11T01:20:54.037Z,7.00
2019-03-11T01:25:55.993Z,7.27
2019-03-11T01:30:57.915Z,7.03
2019-03-11T01:36:00.404Z,6.23
2019-03-11T01:41:03.818Z,6.67
2019-03-11T01:46:06.304Z,6.37
2019-03-11T01:51:08.735Z,6.93
2019-03-11T01:56:12.341Z,6.70
2019-03-11T02:01:14.317Z,6.77
2019-03-11T02:06:16.972Z,7.07
2019-03-11T02:11:19.468Z,6.60
2019-03-11T02:16:21.666Z,6.90
2019-03-11T02:21:24.244Z,6.47
2019-03-11T02:26:26.093Z,6.03
2019-03-11T02:31:28.534Z,5.17
2019-03-11T02:36:30.904Z,4.00
2019-03-11T02:41:32.825Z,4.70
2019-03-11T02:46:34.771Z,3.90
2019-03-11T02:51:37.452Z,3.50
2019-03-11T02:56:39.970Z,3.20
2019-03-11T03:02:10.837Z,3.40
2019-03-11T03:07:13.141Z,3.60
2019-03-11T03:12:15.157Z,3.70
2019-03-11T03:17:17.661Z,3.90
2019-03-11T03:22:20.039Z,3.60
2019-03-11T03:27:22.139Z,3.43
2019-03-11T03:32:24.417Z,3.43
2019-03-11T03:37:26.373Z,3.67
2019-03-11T03:42:28.332Z,3.30
2019-03-11T03:47:30.593Z,3.20
2019-03-11T03:52:32.837Z,3.13
2019-03-11T03:57:35.725Z,3.43
2019-03-11T04:02:37.970Z,3.70
2019-03-11T04:07:39.907Z,4.47
2019-03-11T04:12:41.869Z,4.40
2019-03-11T04:17:44.199Z,4.70
2019-03-11T04:22:46.120Z,5.50
2019-03-11T04:27:48.660Z,5.90
2019-03-11T04:32:50.795Z,6.23
2019-03-11T04:37:52.869Z,6.27
2019-03-11T04:42:55.198Z,7.10
2019-03-11T04:47:57.647Z,7.57
2019-03-11T04:53:00.080Z,7.80
2019-03-11T04:58:02.688Z,7.47
2019-03-11T05:03:05.134Z,7.43
2019-03-11T05:08:07.079Z,7.60
2019-03-11T05:13:09.060Z,6.60
2019-03-11T05:18:11.018Z,6.30
2019-03-11T05:23:13.233Z,6.00
2019-03-11T05:28:15.160Z,5.67
2019-03-11T05:33:18.401Z,5.80
2019-03-11T05:38:21.506Z,5.30
2019-03-11T05:43:24.695Z,6.27
2019-03-11T05:48:26.633Z,5.10
2019-03-11T05:53:29.071Z,5.10
2019-03-11T05:58:31.602Z,4.90
2019-03-11T06:03:33.665Z,5.67
2019-03-11T06:08:35.618Z,5.50
2019-03-11T06:13:37.549Z,4.63
2019-03-11T06:18:45.142Z,4.50
2019-03-11T06:23:47.041Z,5.40
2019-03-11T06:28:49.187Z,5.90
2019-03-11T06:33:51.081Z,6.83
2019-03-11T06:38:53.020Z,6.10
2019-03-11T06:43:54.992Z,6.20
2019-03-11T06:48:57.818Z,5.90
2019-03-11T06:54:00.068Z,6.37
2019-03-11T06:59:02.520Z,6.37
2019-03-11T07:04:04.738Z,7.23
2019-03-11T07:09:07.640Z,7.37
2019-03-11T07:14:10.587Z,6.47
2019-03-11T07:19:13.776Z,5.93
2019-03-11T07:24:17.749Z,6.67
2019-03-11T07:29:19.880Z,6.27
2019-03-11T07:34:21.804Z,5.87
2019-03-11T07:39:23.688Z,5.70
2019-03-11T07:44:26.077Z,5.70
2019-03-11T07:49:28.119Z,5.47
2019-03-11T07:54:35.788Z,5.93
2019-03-11T07:59:34.365Z,5.77
2019-03-11T08:04:36.635Z,6.30
2019-03-11T08:09:39.117Z,5.10
2019-03-11T08:14:41.448Z,5.30
2019-03-11T08:19:44.321Z,4.70
2019-03-11T08:24:46.805Z,5.77
2019-03-11T08:29:49.319Z,4.57
2019-03-11T08:34:51.419Z,4.93
2019-03-11T08:39:53.374Z,4.47
2019-03-11T08:44:55.351Z,4.27
2019-03-11T08:49:57.637Z,4.53
2019-03-11T08:55:00.013Z,4.30
2019-03-11T09:00:02.638Z,4.07
2019-03-11T09:05:08.323Z,3.80
2019-03-11T09:10:11.730Z,3.73
2019-03-11T09:15:14.997Z,3.80
2019-03-11T09:20:17.593Z,3.73
2019-03-11T09:25:20.061Z,3.57
2019-03-11T09:30:22.111Z,3.37
2019-03-11T09:35:24.943Z,3.37
2019-03-11T09:40:27.749Z,3.00
2019-03-11T09:45:30.275Z,3.37
2019-03-11T09:50:35.135Z,3.47
2019-03-11T09:55:37.631Z,2.87
2019-03-11T10:00:39.756Z,3.47
2019-03-11T10:05:41.956Z,3.43
2019-03-11T10:10:44.164Z,3.43
2019-03-11T10:15:47.024Z,3.50
2019-03-11T10:20:49.537Z,3.83
2019-03-11T10:25:51.804Z,3.17
2019-03-11T10:30:54.544Z,3.83
2019-03-11T10:35:56.387Z,3.30
2019-03-11T10:40:58.493Z,2.97
2019-03-11T10:46:00.770Z,3.10
2019-03-11T10:51:03.066Z,3.43
2019-03-11T10:56:05.133Z,3.23
2019-03-11T11:01:09.617Z,3.57
2019-03-11T11:06:12.624Z,3.53
2019-03-11T11:11:14.749Z,3.63
2019-03-11T11:16:16.853Z,3.53
2019-03-11T11:21:19.420Z,3.60
2019-03-11T11:26:21.520Z,3.77
2019-03-11T11:31:23.506Z,3.30
2019-03-11T11:36:25.461Z,3.77
2019-03-11T11:41:27.766Z,3.70
2019-03-11T11:46:29.729Z,4.60
2019-03-11T11:51:32.324Z,3.97
2019-03-11T11:56:34.232Z,3.13
2019-03-11T12:01:36.233Z,3.63
2019-03-11T12:06:38.449Z,3.93
2019-03-11T12:11:40.426Z,3.60
2019-03-11T12:16:42.689Z,3.80
2019-03-11T12:21:45.011Z,4.27
2019-03-11T12:26:47.733Z,3.57
2019-03-11T12:31:49.716Z,4.23
2019-03-11T12:36:51.590Z,4.30
2019-03-11T12:41:53.740Z,3.33
2019-03-11T12:46:56.547Z,3.53
2019-03-11T12:51:59.069Z,3.03
2019-03-11T12:57:01.869Z,3.07
2019-03-11T13:02:03.796Z,2.67
2019-03-11T13:07:05.931Z,1.90
2019-03-11T13:12:09.035Z,2.37
2019-03-11T13:17:11.341Z,2.10
2019-03-11T13:22:13.286Z,2.10
2019-03-11T13:27:15.137Z,2.30
2019-03-11T13:32:17.165Z,2.37
2019-03-11T13:37:19.150Z,2.10
2019-03-11T13:42:21.111Z,2.50
2019-03-11T13:47:23.132Z,2.07
2019-03-11T13:52:25.256Z,1.97
2019-03-11T13:57:27.440Z,1.90
2019-03-11T14:02:31.205Z,2.30
2019-03-11T14:07:33.144Z,1.77
2019-03-11T14:12:35.419Z,1.93
2019-03-11T14:17:37.221Z,2.10
2019-03-11T14:22:39.289Z,2.53
2019-03-11T14:27:41.476Z,2.10
2019-03-11T14:32:44.196Z,1.90
2019-03-11T14:37:46.369Z,1.97
2019-03-11T14:42:48.278Z,1.60
2019-03-11T14:47:50.201Z,2.00
2019-03-11T14:52:52.137Z,1.87
2019-03-11T14:57:54.292Z,1.83
2019-03-11T15:02:56.884Z,1.90
2019-03-11T15:07:58.854Z,1.67
2019-03-11T15:13:01.181Z,1.90
2019-03-11T15:18:04.549Z,1.60
2019-03-11T15:23:18.959Z,1.50
2019-03-11T15:28:10.153Z,1.90
2019-03-11T15:33:11.971Z,1.80
2019-03-11T15:38:14.042Z,2.10
2019-03-11T15:43:17.708Z,1.70
2019-03-11T15:48:19.736Z,1.30
2019-03-11T15:53:22.479Z,1.60
2019-03-11T15:58:24.312Z,1.60
2019-03-11T16:03:35.994Z,1.70
2019-03-11T16:08:30.541Z,1.50
2019-03-11T16:13:32.489Z,1.93
2019-03-11T16:18:34.757Z,1.80
2019-03-11T16:23:36.830Z,2.17
2019-03-11T16:28:47.814Z,1.93
2019-03-11T16:33:43.473Z,2.00
2019-03-11T16:38:45.749Z,2.73
2019-03-11T16:43:47.936Z,2.20
2019-03-11T16:48:50.376Z,2.10
2019-03-11T16:53:52.355Z,1.90
2019-03-11T16:58:54.429Z,2.47
2019-03-11T17:03:56.381Z,2.13
2019-03-11T17:08:58.949Z,2.23
2019-03-11T17:14:01.263Z,2.40
2019-03-11T17:19:03.955Z,2.40
2019-03-11T17:24:05.897Z,2.27
2019-03-11T17:29:07.827Z,2.00
2019-03-11T17:34:09.794Z,2.50
2019-03-11T17:39:11.739Z,1.90
2019-03-11T17:44:14.224Z,1.77
2019-03-11T17:49:16.283Z,1.80
2019-03-11T17:54:18.898Z,1.83
2019-03-11T17:59:21.324Z,1.80
2019-03-11T18:04:24.192Z,2.23
2019-03-11T18:09:27.541Z,2.30
2019-03-11T18:14:30.413Z,2.10
2019-03-11T18:19:32.953Z,3.73
2019-03-11T18:24:35.231Z,4.07
2019-03-11T18:29:37.995Z,4.13
2019-03-11T18:34:39.828Z,4.70
2019-03-11T18:39:41.656Z,5.00
2019-03-11T18:44:44.181Z,4.20
2019-03-11T18:49:46.213Z,5.30
2019-03-11T18:54:48.370Z,4.70
2019-03-11T18:59:50.552Z,4.00
2019-03-11T19:04:53.132Z,3.87
2019-03-11T19:09:55.405Z,5.67
2019-03-11T19:14:59.500Z,2.93
2019-03-11T19:20:04.420Z,3.00
2019-03-11T19:25:10.798Z,2.93
2019-03-11T19:30:15.219Z,2.70
2019-03-11T19:35:20.368Z,2.77
2019-03-11T19:40:25.729Z,3.00
2019-03-11T19:45:31.812Z,2.60
2019-03-11T19:50:34.817Z,3.13
2019-03-11T19:55:36.944Z,2.80
2019-03-11T20:00:39.564Z,2.30
2019-03-11T20:05:45.042Z,2.07
2019-03-11T20:10:47.351Z,2.07
2019-03-11T20:15:53.838Z,2.23
2019-03-11T20:20:55.001Z,2.60
2019-03-11T20:25:57.637Z,2.57
2019-03-11T20:31:00.251Z,2.97
2019-03-11T20:36:02.872Z,2.43
2019-03-11T20:41:05.663Z,3.23
2019-03-11T20:46:08.256Z,2.40
2019-03-11T20:51:13.505Z,2.67
2019-03-11T20:56:22.915Z,2.63
2019-03-11T21:01:25.616Z,2.40
2019-03-11T21:06:28.156Z,2.90
2019-03-11T21:11:30.468Z,3.30
2019-03-11T21:16:32.747Z,3.63
2019-03-11T21:21:35.057Z,6.23
2019-03-11T21:26:38.141Z,4.03
2019-03-11T21:31:42.056Z,4.07
2019-03-11T21:36:44.842Z,3.80
2019-03-11T21:41:47.032Z,3.60
2019-03-11T21:46:49.422Z,4.40
2019-03-11T21:51:51.591Z,5.93
2019-03-11T21:56:53.602Z,5.00
2019-03-11T22:01:56.361Z,4.30
2019-03-11T22:06:58.752Z,4.60
2019-03-11T22:12:00.760Z,5.30
2019-03-11T22:17:02.653Z,4.40
2019-03-11T22:22:04.868Z,5.27
2019-03-11T22:27:07.468Z,5.50
2019-03-11T22:32:09.977Z,6.07
2019-03-11T22:37:12.551Z,6.37
2019-03-11T22:42:14.654Z,7.87
2019-03-11T22:47:16.589Z,7.17
2019-03-11T22:52:20.048Z,6.77
2019-03-11T22:57:22.337Z,6.80
2019-03-11T23:02:24.529Z,7.07
2019-03-11T23:07:26.781Z,7.10
2019-03-11T23:12:29.757Z,7.50
2019-03-11T23:17:31.715Z,8.10
2019-03-11T23:22:33.928Z,8.63
2019-03-11T23:27:35.761Z,9.10
2019-03-11T23:32:37.929Z,9.20
2019-03-11T23:37:40.198Z,8.50
2019-03-11T23:42:43.917Z,8.53
2019-03-11T23:47:45.795Z,8.43
2019-03-11T23:52:48.175Z,8.40
2019-03-11T23:57:50.684Z,8.37
